Aérodrome :
LOGIN :

S'inscrire | Disclaimer

   EN    FR    IT 

 










Légende :    VFR   VFR Marginal   IFR   IFR Intensif   IFR Très Intensif
Visi : 
Plafond : 
>= 8 km
>= 3000ft
5 à 8 km
1000 à 3000 ft
1500m à 5 km
500 à 1000 ft
800 à 1500m
200 à 500 ft
< 800m
< 200 ft
Symboles :   Orages  Brouillard  Fortes neiges  Fortes précipitations  Vent > 20 kt
SIGMETs :   Divers  Orages  Givrage  Turbulence  Onde Orograph.  Cendres Volcan.







- Altitude de l'aérodrome : 1568 ft


ETSB - Büchel AB

DERNIER METAR :
  • 220520Z 25018G30KT 9999 -RADZ BKN006 BKN012 08/06 Q1010 YLO YLO

METARs EXPIRÉS :
  • 220420Z 23015KT 9999 BKN005 BKN010 08/07 Q1011 YLO
  • 220320Z AUTO 24013G24KT 5000 // ////// 08/08 Q1011 ///

TAF TAF ETSB
Valide du 22 à 06h jusqu'au 22 à 15h UTC


220520Z 2206/2215 23012KT 5000 -RADZ SCT003 BKN005
TEMPO 2206/2215 24015G30KT 3000 DZRA BKN003 OVC005
PROB30 2206/2215 26020G35KT 1500 DZRA BKN002 OVC004 BY ETGL
Pas de NOTAMs connus pour ce terrain.



MET'MAP, la Météo Aéronautique d'un coup d'oeil ! - Copyright ORBIFLY Décembre 2007 - Disclaimer

ORBIFLY MET'MAP TEAM :

Programmation & Développement : Alexandra Zaïnal
Conception & Développement : Baudouin d'Aumeries
Co-Programmation & Développement : Marc-Olivier Méhu
Soutien technique & logistique : Manuel Goepfert

Contact : metmap@orbifly.com




SOURCES & CREDITS :

   NOAA